createdAt,value
2018-10-05T00:02:03.429Z,6.20
2018-10-05T00:04:31.660Z,7.47
2018-10-05T00:07:00.108Z,8.53
2018-10-05T00:09:28.250Z,5.70
2018-10-05T00:11:56.492Z,6.70
2018-10-05T00:14:25.352Z,7.23
2018-10-05T00:16:53.683Z,5.97
2018-10-05T00:19:21.868Z,7.13
2018-10-05T00:21:50.051Z,5.27
2018-10-05T00:24:18.191Z,6.40
2018-10-05T00:26:47.077Z,6.10
2018-10-05T00:29:15.221Z,6.60
2018-10-05T00:31:43.405Z,6.10
2018-10-05T00:34:11.543Z,5.80
2018-10-05T00:36:39.705Z,5.20
2018-10-05T00:39:09.096Z,5.80
2018-10-05T00:41:37.243Z,5.83
2018-10-05T00:44:05.448Z,5.77
2018-10-05T00:46:33.619Z,5.47
2018-10-05T00:49:01.752Z,6.20
2018-10-05T00:51:29.945Z,5.93
2018-10-05T00:53:58.225Z,5.60
2018-10-05T00:56:27.152Z,6.87
2018-10-05T00:58:55.282Z,7.40
2018-10-05T01:01:24.195Z,6.90
2018-10-05T01:03:52.363Z,6.97
2018-10-05T01:06:20.551Z,6.93
2018-10-05T01:08:48.689Z,6.50
2018-10-05T01:11:16.873Z,6.97
2018-10-05T01:13:45.473Z,6.87
2018-10-05T01:16:13.609Z,4.93
2018-10-05T01:18:41.790Z,5.83
2018-10-05T01:21:09.976Z,5.50
2018-10-05T01:23:38.927Z,5.80
2018-10-05T01:26:07.109Z,5.30
2018-10-05T01:28:36.111Z,5.17
2018-10-05T01:31:04.265Z,5.83
2018-10-05T01:33:32.465Z,6.57
2018-10-05T01:36:00.677Z,5.23
2018-10-05T01:38:28.859Z,5.03
2018-10-05T01:40:57.039Z,5.67
2018-10-05T01:43:25.237Z,6.00
2018-10-05T01:45:53.369Z,5.63
2018-10-05T01:48:21.544Z,5.90
2018-10-05T01:50:51.360Z,5.90
2018-10-05T01:53:19.470Z,6.23
2018-10-05T01:55:47.697Z,5.90
2018-10-05T01:58:16.445Z,5.80
2018-10-05T02:00:44.591Z,5.37
2018-10-05T02:03:12.707Z,5.77
2018-10-05T02:05:40.857Z,6.40
2018-10-05T02:08:09.015Z,5.33
2018-10-05T02:10:37.153Z,5.93
2018-10-05T02:13:05.262Z,5.30
2018-10-05T02:15:33.473Z,5.33
2018-10-05T02:18:02.667Z,5.60
2018-10-05T02:20:30.851Z,5.50
2018-10-05T02:22:59.021Z,5.40
2018-10-05T02:25:27.151Z,5.23
2018-10-05T02:27:55.315Z,6.03
2018-10-05T02:30:23.480Z,6.00
2018-10-05T02:32:51.664Z,6.17
2018-10-05T02:35:19.827Z,6.00
2018-10-05T02:37:48.021Z,5.70
2018-10-05T02:40:16.308Z,7.00
2018-10-05T02:42:44.491Z,5.70
2018-10-05T02:45:12.731Z,6.13
2018-10-05T02:47:40.911Z,5.60
2018-10-05T02:50:09.161Z,6.13
2018-10-05T02:52:37.357Z,6.73
2018-10-05T02:55:05.573Z,5.73
2018-10-05T02:57:33.754Z,5.70
2018-10-05T03:00:01.920Z,6.83
2018-10-05T03:02:31.615Z,6.83
2018-10-05T03:04:59.770Z,5.73
2018-10-05T03:07:29.125Z,5.50
2018-10-05T03:09:58.041Z,5.83
2018-10-05T03:12:26.296Z,5.83
2018-10-05T03:14:54.424Z,5.37
2018-10-05T03:17:23.960Z,5.00
2018-10-05T03:19:52.180Z,5.23
2018-10-05T03:22:20.931Z,6.33
2018-10-05T03:24:49.079Z,5.83
2018-10-05T03:27:17.261Z,6.07
2018-10-05T03:29:45.404Z,5.77
2018-10-05T03:32:13.543Z,5.90
2018-10-05T03:34:41.721Z,7.63
2018-10-05T03:37:09.892Z,6.27
2018-10-05T03:39:38.025Z,6.20
2018-10-05T03:42:06.264Z,6.10
2018-10-05T03:44:34.417Z,5.73
2018-10-05T03:47:02.599Z,5.77
2018-10-05T03:49:33.492Z,5.77
2018-10-05T03:52:01.745Z,5.70
2018-10-05T03:54:30.277Z,5.40
2018-10-05T03:56:58.476Z,6.30
2018-10-05T03:59:26.670Z,5.63
2018-10-05T04:01:54.801Z,5.47
2018-10-05T04:04:23.045Z,5.93
2018-10-05T04:06:51.210Z,6.30
2018-10-05T04:09:19.390Z,6.83
2018-10-05T04:11:47.570Z,6.37
2018-10-05T04:14:15.746Z,5.70
2018-10-05T04:16:43.912Z,6.00
2018-10-05T04:19:12.100Z,6.83
2018-10-05T04:21:40.300Z,5.53
2018-10-05T04:24:09.552Z,6.60
2018-10-05T04:26:37.706Z,6.13
2018-10-05T04:29:05.872Z,6.73
2018-10-05T04:31:34.062Z,6.00
2018-10-05T04:34:02.246Z,6.73
2018-10-05T04:36:30.475Z,6.03
2018-10-05T04:38:58.725Z,6.73
2018-10-05T04:41:26.875Z,6.03
2018-10-05T04:43:55.067Z,6.10
2018-10-05T04:46:23.268Z,8.50
2018-10-05T04:48:51.481Z,6.20
2018-10-05T04:51:20.271Z,5.97
2018-10-05T04:53:48.455Z,6.70
2018-10-05T04:56:16.854Z,5.77
2018-10-05T04:58:45.191Z,6.50
2018-10-05T05:01:13.414Z,5.40
2018-10-05T05:03:41.535Z,5.43
2018-10-05T05:06:09.706Z,5.97
2018-10-05T05:08:37.928Z,6.07
2018-10-05T05:11:06.388Z,5.53
2018-10-05T05:13:34.568Z,5.80
2018-10-05T05:16:03.544Z,5.70
2018-10-05T05:18:31.679Z,6.47
2018-10-05T05:21:00.771Z,5.77
2018-10-05T05:23:29.044Z,7.13
2018-10-05T05:25:57.344Z,6.70
2018-10-05T05:28:25.548Z,6.77
2018-10-05T05:30:53.761Z,5.37
2018-10-05T05:33:22.065Z,6.47
2018-10-05T05:35:50.302Z,5.70
2018-10-05T05:38:18.456Z,5.50
2018-10-05T05:40:46.683Z,6.10
2018-10-05T05:43:14.827Z,6.10
2018-10-05T05:45:43.111Z,6.60
2018-10-05T05:48:11.272Z,5.23
2018-10-05T05:50:39.508Z,6.43
2018-10-05T05:53:07.699Z,6.40
2018-10-05T05:55:35.854Z,5.90
2018-10-05T05:58:04.050Z,7.60
2018-10-05T06:00:32.284Z,5.70
2018-10-05T06:03:00.522Z,5.93
2018-10-05T06:05:29.915Z,5.90
2018-10-05T06:07:58.194Z,6.47
2018-10-05T06:10:27.228Z,6.00
2018-10-05T06:12:55.623Z,6.90
2018-10-05T06:15:23.829Z,7.30
2018-10-05T06:17:52.032Z,5.97
2018-10-05T06:20:20.166Z,5.90
2018-10-05T06:22:48.382Z,5.20
2018-10-05T06:25:16.553Z,5.10
2018-10-05T06:27:44.721Z,5.20
2018-10-05T06:30:12.926Z,4.50
2018-10-05T06:32:41.093Z,5.90
2018-10-05T06:35:09.276Z,5.17
2018-10-05T06:37:37.419Z,5.43
2018-10-05T06:40:05.660Z,4.80
2018-10-05T06:42:34.006Z,4.90
2018-10-05T06:45:02.163Z,9.70
2018-10-05T06:47:30.282Z,8.90
2018-10-05T06:49:58.460Z,6.80
2018-10-05T06:52:26.669Z,6.43
2018-10-05T06:54:54.846Z,4.43
2018-10-05T06:57:23.005Z,4.57
2018-10-05T06:59:51.170Z,5.17
2018-10-05T07:02:19.305Z,5.27
2018-10-05T07:04:47.448Z,5.07
2018-10-05T07:07:15.725Z,4.87
2018-10-05T07:09:43.862Z,5.00
2018-10-05T07:12:11.990Z,5.17
2018-10-05T07:14:40.115Z,5.60
2018-10-05T07:17:08.307Z,4.80
2018-10-05T07:19:36.425Z,4.60
2018-10-05T07:22:04.666Z,4.20
2018-10-05T07:24:32.888Z,4.93
2018-10-05T07:27:01.041Z,4.60
2018-10-05T07:29:29.180Z,5.23
2018-10-05T07:31:57.325Z,5.30
2018-10-05T07:34:26.004Z,4.90
2018-10-05T07:36:54.427Z,5.37
2018-10-05T07:39:24.148Z,5.47
2018-10-05T07:41:52.344Z,4.47
2018-10-05T07:44:21.401Z,4.63
2018-10-05T07:46:49.608Z,4.37
2018-10-05T07:49:17.836Z,4.27
2018-10-05T07:51:47.052Z,5.17
2018-10-05T07:54:15.755Z,5.63
2018-10-05T07:56:44.092Z,8.00
2018-10-05T07:59:12.568Z,4.70
2018-10-05T08:01:40.766Z,5.47
2018-10-05T08:04:08.957Z,4.37
2018-10-05T08:06:37.114Z,4.53
2018-10-05T08:11:43.268Z,4.37
2018-10-05T08:14:11.930Z,4.30
2018-10-05T08:16:40.072Z,3.60
2018-10-05T08:19:08.200Z,4.50
2018-10-05T08:21:36.333Z,4.47
2018-10-05T08:24:04.558Z,3.70
2018-10-05T08:26:32.770Z,5.20
2018-10-05T08:29:00.941Z,3.70
2018-10-05T08:31:29.099Z,4.93
2018-10-05T08:33:57.326Z,3.30
2018-10-05T08:36:25.510Z,3.37
2018-10-05T08:38:53.723Z,4.10
2018-10-05T08:41:21.866Z,3.17
2018-10-05T08:43:50.132Z,3.60
2018-10-05T08:46:18.302Z,3.30
2018-10-05T08:48:46.442Z,3.23
2018-10-05T08:51:14.548Z,3.17
2018-10-05T08:53:42.730Z,4.20
2018-10-05T08:56:10.874Z,3.30
2018-10-05T08:58:39.065Z,3.10
2018-10-05T09:01:07.251Z,4.97
2018-10-05T09:03:35.448Z,3.63
2018-10-05T09:06:03.578Z,3.10
2018-10-05T09:08:32.898Z,3.10
2018-10-05T09:11:01.060Z,3.20
2018-10-05T09:13:29.261Z,3.10
2018-10-05T09:15:57.476Z,3.40
2018-10-05T09:18:25.690Z,3.07
2018-10-05T09:20:53.784Z,2.67
2018-10-05T09:23:21.956Z,3.00
2018-10-05T09:25:50.093Z,3.93
2018-10-05T09:28:18.244Z,2.90
2018-10-05T09:30:46.448Z,2.20
2018-10-05T09:33:15.950Z,2.07
2018-10-05T09:35:44.312Z,2.07
2018-10-05T09:38:12.581Z,2.17
2018-10-05T09:40:40.813Z,1.87
2018-10-05T09:43:09.096Z,2.20
2018-10-05T09:45:37.431Z,2.20
2018-10-05T09:48:05.674Z,2.50
2018-10-05T09:50:34.036Z,1.80
2018-10-05T09:53:04.105Z,1.90
2018-10-05T09:55:32.324Z,2.20
2018-10-05T09:58:00.765Z,2.33
2018-10-05T10:00:34.498Z,3.97
2018-10-05T10:03:08.307Z,3.77
2018-10-05T10:05:36.479Z,2.37
2018-10-05T10:08:04.862Z,3.30
2018-10-05T10:10:32.991Z,2.30
2018-10-05T10:13:01.141Z,2.73
2018-10-05T10:15:30.404Z,2.50
2018-10-05T10:17:58.573Z,3.03
2018-10-05T10:20:26.762Z,1.77
2018-10-05T10:22:55.701Z,3.90
2018-10-05T10:25:23.857Z,3.00
2018-10-05T10:27:52.067Z,3.40
2018-10-05T10:30:20.268Z,2.43
2018-10-05T10:32:49.021Z,2.33
2018-10-05T10:35:17.232Z,2.60
2018-10-05T10:37:45.416Z,2.30
2018-10-05T10:40:13.578Z,2.60
2018-10-05T10:42:41.762Z,3.43
2018-10-05T10:45:10.342Z,2.97
2018-10-05T10:47:38.546Z,3.67
2018-10-05T10:52:41.375Z,2.87
2018-10-05T10:55:09.619Z,3.00
2018-10-05T10:57:37.679Z,2.83
2018-10-05T11:00:05.885Z,2.40
2018-10-05T11:02:34.008Z,2.40
2018-10-05T11:05:02.233Z,3.10
2018-10-05T11:07:30.358Z,2.90
2018-10-05T11:09:58.477Z,3.50
2018-10-05T11:12:26.616Z,2.77
2018-10-05T11:14:54.946Z,3.10
2018-10-05T11:17:23.071Z,2.90
2018-10-05T11:19:51.277Z,3.37
2018-10-05T11:22:19.457Z,2.87
2018-10-05T11:24:47.679Z,3.20
2018-10-05T11:27:15.861Z,5.40
2018-10-05T11:29:44.146Z,3.57
2018-10-05T11:32:12.239Z,3.70
2018-10-05T11:34:40.441Z,4.60
2018-10-05T11:37:08.693Z,3.43
2018-10-05T11:39:36.821Z,3.43
2018-10-05T11:42:05.100Z,3.53
2018-10-05T11:44:33.219Z,2.60
2018-10-05T11:47:03.088Z,3.97
2018-10-05T11:49:31.268Z,2.90
2018-10-05T11:51:59.553Z,3.70
2018-10-05T11:54:27.705Z,3.20
2018-10-05T11:56:55.866Z,3.93
2018-10-05T11:59:25.278Z,2.80
2018-10-05T12:01:53.469Z,3.80
2018-10-05T12:04:22.250Z,3.73
2018-10-05T12:06:50.433Z,3.20
2018-10-05T12:09:18.604Z,2.90
2018-10-05T12:11:46.780Z,3.40
2018-10-05T12:14:14.978Z,3.30
2018-10-05T12:16:43.135Z,2.77
2018-10-05T12:19:11.298Z,3.13
2018-10-05T12:21:39.442Z,3.47
2018-10-05T12:24:07.766Z,6.20
2018-10-05T12:26:35.950Z,2.93
2018-10-05T12:29:05.261Z,2.90
2018-10-05T12:31:33.455Z,3.07
2018-10-05T12:34:01.770Z,2.90
2018-10-05T12:36:29.987Z,3.97
2018-10-05T12:38:58.119Z,3.20
2018-10-05T12:41:26.344Z,3.33
2018-10-05T12:43:54.567Z,3.17
2018-10-05T12:46:22.854Z,2.73
2018-10-05T12:48:51.232Z,3.50
2018-10-05T12:51:19.355Z,2.50
2018-10-05T12:53:47.527Z,2.80
2018-10-05T12:56:15.931Z,3.93
2018-10-05T12:58:44.161Z,3.07
2018-10-05T13:01:12.378Z,5.27
2018-10-05T13:03:40.517Z,3.67
2018-10-05T13:06:08.690Z,3.77
2018-10-05T13:08:36.824Z,3.30
2018-10-05T13:11:04.973Z,3.93
2018-10-05T13:13:33.111Z,4.00
2018-10-05T13:16:01.320Z,3.60
2018-10-05T13:18:29.871Z,3.30
2018-10-05T13:20:58.177Z,3.53
2018-10-05T13:23:26.305Z,2.93
2018-10-05T13:25:54.473Z,3.13
2018-10-05T13:28:22.655Z,3.67
2018-10-05T13:30:51.351Z,4.37
2018-10-05T13:33:19.459Z,4.10
2018-10-05T13:35:47.600Z,3.30
2018-10-05T13:38:15.840Z,5.60
2018-10-05T13:40:43.992Z,3.40
2018-10-05T13:43:12.125Z,3.27
2018-10-05T13:45:40.289Z,3.20
2018-10-05T13:48:08.433Z,4.17
2018-10-05T13:50:36.670Z,3.90
2018-10-05T13:53:04.822Z,3.00
2018-10-05T13:55:33.083Z,3.90
2018-10-05T13:58:01.219Z,4.17
2018-10-05T14:00:29.445Z,3.10
2018-10-05T14:02:58.667Z,3.30
2018-10-05T14:05:26.977Z,3.00
2018-10-05T14:07:55.211Z,4.83
2018-10-05T14:10:23.489Z,4.07
2018-10-05T14:12:51.663Z,3.73
2018-10-05T14:15:19.901Z,2.90
2018-10-05T14:17:48.330Z,2.70
2018-10-05T14:20:16.456Z,4.50
2018-10-05T14:22:44.638Z,3.17
2018-10-05T14:25:12.887Z,3.10
2018-10-05T14:27:41.060Z,3.97
2018-10-05T14:30:09.265Z,3.50
2018-10-05T14:32:37.500Z,4.00
2018-10-05T14:35:05.679Z,3.97
2018-10-05T14:37:33.869Z,3.23
2018-10-05T14:40:02.053Z,3.50
2018-10-05T14:42:30.260Z,3.43
2018-10-05T14:44:58.468Z,3.80
2018-10-05T14:47:26.591Z,4.17
2018-10-05T14:49:54.749Z,2.77
2018-10-05T14:52:24.560Z,2.77
2018-10-05T14:54:53.633Z,4.17
2018-10-05T14:57:23.228Z,3.70
2018-10-05T14:59:53.002Z,4.17
2018-10-05T15:02:21.149Z,4.20
2018-10-05T15:04:49.348Z,4.10
2018-10-05T15:07:17.542Z,4.00
2018-10-05T15:09:46.529Z,3.77
2018-10-05T15:12:14.649Z,9.63
2018-10-05T15:14:42.815Z,3.90
2018-10-05T15:17:11.015Z,4.00
2018-10-05T15:19:39.235Z,3.03
2018-10-05T15:22:07.625Z,3.10
2018-10-05T15:24:35.841Z,3.50
2018-10-05T15:27:04.047Z,6.30
2018-10-05T15:29:32.258Z,3.00
2018-10-05T15:32:00.435Z,2.77
2018-10-05T15:34:29.180Z,4.50
2018-10-05T15:36:57.333Z,4.50
2018-10-05T15:39:25.673Z,3.60
2018-10-05T15:41:53.900Z,4.10
2018-10-05T15:44:22.046Z,4.00
2018-10-05T15:46:54.110Z,3.10
2018-10-05T15:49:22.285Z,4.13
2018-10-05T15:51:50.507Z,4.43
2018-10-05T15:54:18.800Z,6.70
2018-10-05T15:56:47.011Z,4.73
2018-10-05T15:59:15.727Z,4.30
2018-10-05T16:01:43.959Z,3.60
2018-10-05T16:04:12.162Z,5.00
2018-10-05T16:06:40.385Z,5.50
2018-10-05T16:09:09.197Z,4.40
2018-10-05T16:11:37.597Z,4.50
2018-10-05T16:14:05.912Z,4.37
2018-10-05T16:16:34.225Z,3.80
2018-10-05T16:19:03.307Z,11.10
2018-10-05T16:21:31.788Z,15.50
2018-10-05T16:23:59.955Z,8.60
2018-10-05T16:26:28.145Z,5.87
2018-10-05T16:28:56.425Z,4.53
2018-10-05T16:31:24.609Z,3.90
2018-10-05T16:33:53.431Z,5.07
2018-10-05T16:36:21.613Z,5.10
2018-10-05T16:38:49.799Z,5.87
2018-10-05T16:41:17.974Z,10.93
2018-10-05T16:43:46.206Z,5.73
2018-10-05T16:46:14.389Z,6.70
2018-10-05T16:48:42.560Z,5.80
2018-10-05T16:51:10.842Z,7.07
2018-10-05T16:53:39.062Z,9.30
2018-10-05T16:56:07.257Z,5.70
2018-10-05T16:58:35.489Z,6.30
2018-10-05T17:01:03.637Z,6.90
2018-10-05T17:03:31.998Z,8.37
2018-10-05T17:06:00.172Z,5.53
2018-10-05T17:08:30.043Z,6.40
2018-10-05T17:10:58.374Z,7.80
2018-10-05T17:13:26.513Z,8.90
2018-10-05T17:15:54.888Z,8.20
2018-10-05T17:18:23.152Z,4.93
2018-10-05T17:20:51.423Z,5.83
2018-10-05T17:23:19.601Z,7.83
2018-10-05T17:25:47.959Z,7.80
2018-10-05T17:28:16.236Z,5.40
2018-10-05T17:30:44.451Z,5.33
2018-10-05T17:33:12.609Z,6.03
2018-10-05T17:35:40.762Z,6.80
2018-10-05T17:38:08.938Z,9.97
2018-10-05T17:40:37.153Z,7.70
2018-10-05T17:43:05.902Z,5.43
2018-10-05T17:45:34.154Z,7.60
2018-10-05T17:48:02.410Z,6.80
2018-10-05T17:50:30.709Z,5.87
2018-10-05T17:52:59.006Z,5.80
2018-10-05T17:55:27.689Z,5.77
2018-10-05T17:57:56.098Z,7.17
2018-10-05T18:00:24.310Z,10.70
2018-10-05T18:02:52.735Z,6.63
2018-10-05T18:05:20.927Z,7.00
2018-10-05T18:07:49.098Z,6.90
2018-10-05T18:10:17.284Z,8.20
2018-10-05T18:12:45.477Z,10.00
2018-10-05T18:15:13.637Z,7.80
2018-10-05T18:17:41.844Z,8.40
2018-10-05T18:20:10.627Z,9.43
2018-10-05T18:22:38.842Z,7.37
2018-10-05T18:25:08.037Z,9.50
2018-10-05T18:27:36.240Z,6.80
2018-10-05T18:30:04.546Z,7.30
2018-10-05T18:32:33.836Z,8.50
2018-10-05T18:35:01.980Z,7.03
2018-10-05T18:37:30.162Z,7.30
2018-10-05T18:39:58.562Z,6.40
2018-10-05T18:42:26.809Z,6.83
2018-10-05T18:44:55.057Z,10.40
2018-10-05T18:47:23.263Z,15.60
2018-10-05T18:49:51.495Z,7.87
2018-10-05T18:52:19.748Z,7.20
2018-10-05T18:54:48.007Z,6.73
2018-10-05T18:57:19.957Z,6.20
2018-10-05T18:59:48.234Z,7.20
2018-10-05T19:02:17.022Z,6.17
2018-10-05T19:04:45.737Z,6.70
2018-10-05T19:07:14.590Z,7.30
2018-10-05T19:09:42.786Z,7.50
2018-10-05T19:12:11.163Z,6.97
2018-10-05T19:14:39.308Z,7.60
2018-10-05T19:17:07.480Z,7.17
2018-10-05T19:19:35.756Z,6.40
2018-10-05T19:22:03.986Z,7.83
2018-10-05T19:24:32.169Z,8.90
2018-10-05T19:27:00.469Z,7.60
2018-10-05T19:29:28.824Z,7.70
2018-10-05T19:31:57.085Z,7.00
2018-10-05T19:34:25.356Z,8.80
2018-10-05T19:36:53.564Z,7.17
2018-10-05T19:39:21.907Z,7.87
2018-10-05T19:41:50.091Z,6.80
2018-10-05T19:44:18.335Z,7.13
2018-10-05T19:46:46.540Z,7.67
2018-10-05T19:49:14.830Z,8.03
2018-10-05T19:51:43.002Z,8.27
2018-10-05T19:54:11.370Z,10.80
2018-10-05T19:56:39.638Z,10.53
2018-10-05T19:59:07.988Z,10.10
2018-10-05T20:01:36.247Z,7.27
2018-10-05T20:04:04.472Z,8.50
2018-10-05T20:06:32.664Z,8.17
2018-10-05T20:09:00.877Z,8.00
2018-10-05T20:11:29.105Z,8.43
2018-10-05T20:13:57.318Z,7.23
2018-10-05T20:16:26.109Z,7.90
2018-10-05T20:18:54.327Z,9.00
2018-10-05T20:21:23.810Z,7.87
2018-10-05T20:23:51.990Z,9.40
2018-10-05T20:26:20.236Z,7.70
2018-10-05T20:28:48.817Z,8.30
2018-10-05T20:31:16.964Z,7.50
2018-10-05T20:33:45.135Z,8.07
2018-10-05T20:36:13.446Z,7.63
2018-10-05T20:38:41.594Z,9.80
2018-10-05T20:41:09.768Z,8.23
2018-10-05T20:43:37.972Z,7.90
2018-10-05T20:46:06.209Z,7.53
2018-10-05T20:48:34.498Z,7.10
2018-10-05T20:51:02.728Z,9.47
2018-10-05T20:53:30.966Z,7.87
2018-10-05T20:55:59.315Z,8.00
2018-10-05T20:58:28.041Z,11.17
2018-10-05T21:00:56.276Z,9.00
2018-10-05T21:03:24.564Z,7.53
2018-10-05T21:05:52.925Z,7.93
2018-10-05T21:08:21.158Z,7.80
2018-10-05T21:10:49.376Z,12.40
2018-10-05T21:13:17.566Z,11.40
2018-10-05T21:15:45.837Z,8.10
2018-10-05T21:18:14.355Z,7.33
2018-10-05T21:20:42.610Z,8.33
2018-10-05T21:23:10.946Z,8.23
2018-10-05T21:25:39.096Z,7.47
2018-10-05T21:28:07.375Z,8.23
2018-10-05T21:30:35.610Z,8.50
2018-10-05T21:33:03.856Z,10.00
2018-10-05T21:35:31.891Z,8.27
2018-10-05T21:38:00.060Z,7.67
2018-10-05T21:40:28.245Z,7.77
2018-10-05T21:42:57.098Z,7.20
2018-10-05T21:45:25.248Z,8.50
2018-10-05T21:47:53.570Z,8.50
2018-10-05T21:50:21.946Z,8.00
2018-10-05T21:52:50.443Z,13.10
2018-10-05T21:55:19.833Z,8.03
2018-10-05T21:57:48.086Z,8.60
2018-10-05T22:00:16.400Z,8.00
2018-10-05T22:02:44.683Z,7.57
2018-10-05T22:05:13.577Z,8.17
2018-10-05T22:07:41.958Z,9.83
2018-10-05T22:10:10.172Z,13.67
2018-10-05T22:12:38.568Z,9.90
2018-10-05T22:15:06.934Z,10.03
2018-10-05T22:17:35.178Z,11.27
2018-10-05T22:20:03.491Z,20.50
2018-10-05T22:22:31.614Z,12.53
2018-10-05T22:24:59.750Z,10.10
2018-10-05T22:27:27.966Z,10.70
2018-10-05T22:29:56.184Z,10.00
2018-10-05T22:32:24.372Z,8.37
2018-10-05T22:34:52.550Z,8.77
2018-10-05T22:37:20.954Z,8.70
2018-10-05T22:39:49.779Z,8.70
2018-10-05T22:42:17.973Z,7.50
2018-10-05T22:44:46.740Z,8.33
2018-10-05T22:47:14.991Z,7.77
2018-10-05T22:49:43.254Z,9.47
2018-10-05T22:52:11.455Z,9.07
2018-10-05T22:54:40.147Z,10.07
2018-10-05T22:57:09.595Z,9.07
2018-10-05T22:59:37.787Z,7.73
2018-10-05T23:02:07.464Z,9.03
2018-10-05T23:04:35.711Z,7.70
2018-10-05T23:07:03.884Z,7.60
2018-10-05T23:09:32.035Z,7.33
2018-10-05T23:12:00.194Z,8.53
2018-10-05T23:14:28.418Z,8.80
2018-10-05T23:16:56.685Z,7.90
2018-10-05T23:19:24.826Z,8.00
2018-10-05T23:21:53.038Z,8.77
2018-10-05T23:24:21.887Z,8.40
2018-10-05T23:26:50.024Z,8.57
2018-10-05T23:29:18.191Z,8.00
2018-10-05T23:31:46.370Z,8.07
2018-10-05T23:34:14.598Z,8.57
2018-10-05T23:36:42.837Z,8.03
2018-10-05T23:39:11.713Z,8.90
2018-10-05T23:41:39.885Z,8.70
2018-10-05T23:44:08.298Z,8.83
2018-10-05T23:49:11.127Z,8.37
2018-10-05T23:51:39.315Z,8.60
2018-10-05T23:54:07.495Z,8.90
2018-10-05T23:56:35.739Z,8.17
2018-10-05T23:59:04.805Z,7.83
